createdAt,value
2018-06-19T00:01:06.126Z,20.00
2018-06-19T00:03:33.056Z,20.10
2018-06-19T00:05:59.999Z,20.20
2018-06-19T00:08:26.952Z,20.10
2018-06-19T00:10:53.920Z,20.10
2018-06-19T00:13:21.053Z,20.10
2018-06-19T00:15:47.987Z,20.10
2018-06-19T00:18:19.250Z,20.10
2018-06-19T00:20:46.202Z,20.20
2018-06-19T00:23:13.151Z,20.10
2018-06-19T00:25:40.073Z,20.10
2018-06-19T00:28:07.012Z,20.00
2018-06-19T00:30:33.965Z,20.10
2018-06-19T00:33:00.909Z,20.10
2018-06-19T00:35:27.853Z,20.00
2018-06-19T00:37:54.851Z,20.00
2018-06-19T00:40:21.793Z,20.00
2018-06-19T00:42:48.767Z,19.90
2018-06-19T00:45:15.709Z,20.00
2018-06-19T00:47:42.857Z,20.00
2018-06-19T00:50:09.788Z,20.10
2018-06-19T00:52:36.752Z,20.10
2018-06-19T00:55:03.686Z,20.20
2018-06-19T00:57:30.670Z,20.10
2018-06-19T00:59:57.689Z,20.20
2018-06-19T01:02:24.644Z,20.20
2018-06-19T01:04:51.621Z,20.20
2018-06-19T01:07:18.592Z,20.20
2018-06-19T01:09:45.568Z,20.30
2018-06-19T01:12:12.628Z,20.30
2018-06-19T01:14:39.616Z,20.40
2018-06-19T01:17:06.564Z,20.30
2018-06-19T01:19:33.622Z,20.30
2018-06-19T01:22:00.595Z,20.40
2018-06-19T01:24:27.536Z,20.40
2018-06-19T01:26:54.459Z,20.40
2018-06-19T01:29:21.417Z,20.20
2018-06-19T01:31:48.352Z,20.20
2018-06-19T01:34:15.283Z,20.30
2018-06-19T01:36:42.262Z,20.20
2018-06-19T01:39:10.033Z,20.10
2018-06-19T01:41:36.972Z,20.20
2018-06-19T01:44:03.945Z,20.10
2018-06-19T01:46:30.881Z,20.10
2018-06-19T01:48:57.837Z,20.00
2018-06-19T01:51:24.796Z,20.00
2018-06-19T01:53:51.777Z,20.00
2018-06-19T01:56:18.703Z,19.90
2018-06-19T01:58:46.041Z,19.80
2018-06-19T02:01:12.986Z,19.80
2018-06-19T02:03:39.932Z,19.70
2018-06-19T02:06:06.934Z,19.70
2018-06-19T02:08:33.871Z,19.60
2018-06-19T02:11:00.842Z,19.50
2018-06-19T02:13:27.849Z,19.40
2018-06-19T02:15:54.774Z,19.30
2018-06-19T02:18:21.721Z,19.30
2018-06-19T02:20:48.706Z,19.30
2018-06-19T02:23:15.646Z,19.20
2018-06-19T02:25:42.764Z,19.20
2018-06-19T02:28:09.735Z,19.10
2018-06-19T02:30:36.665Z,19.10
2018-06-19T02:33:03.598Z,19.00
2018-06-19T02:35:30.706Z,19.00
2018-06-19T02:37:57.664Z,19.00
2018-06-19T02:40:24.639Z,19.00
2018-06-19T02:42:51.603Z,19.00
2018-06-19T02:45:18.532Z,18.90
2018-06-19T02:47:45.470Z,18.90
2018-06-19T02:50:12.429Z,19.00
2018-06-19T02:52:40.198Z,19.10
2018-06-19T02:55:07.841Z,19.10
2018-06-19T02:57:34.829Z,19.30
2018-06-19T03:00:01.823Z,19.30
2018-06-19T03:02:28.770Z,19.30
2018-06-19T03:04:55.732Z,19.30
2018-06-19T03:07:22.730Z,19.40
2018-06-19T03:09:49.690Z,19.30
2018-06-19T03:12:16.658Z,19.10
2018-06-19T03:14:43.613Z,19.10
2018-06-19T03:17:10.566Z,19.20
2018-06-19T03:19:37.526Z,19.30
2018-06-19T03:22:04.581Z,19.30
2018-06-19T03:24:31.504Z,19.40
2018-06-19T03:26:58.504Z,19.40
2018-06-19T03:29:25.448Z,19.40
2018-06-19T03:31:52.429Z,19.40
2018-06-19T03:34:19.404Z,19.30
2018-06-19T03:36:46.353Z,19.40
2018-06-19T03:39:13.319Z,19.50
2018-06-19T03:41:40.795Z,19.50
2018-06-19T03:44:07.938Z,19.50
2018-06-19T03:46:34.861Z,19.50
2018-06-19T03:49:02.465Z,19.40
2018-06-19T03:51:29.420Z,19.50
2018-06-19T03:53:56.360Z,19.40
2018-06-19T03:56:23.351Z,19.30
2018-06-19T03:58:50.283Z,19.20
2018-06-19T04:01:17.269Z,19.10
2018-06-19T04:03:44.209Z,19.10
2018-06-19T04:06:11.175Z,19.00
2018-06-19T04:08:38.136Z,19.00
2018-06-19T04:11:05.109Z,19.00
2018-06-19T04:13:32.058Z,18.90
2018-06-19T04:15:58.989Z,18.90
2018-06-19T04:18:25.941Z,18.90
2018-06-19T04:20:52.869Z,18.90
2018-06-19T04:23:19.794Z,18.90
2018-06-19T04:25:46.761Z,18.90
2018-06-19T04:28:13.737Z,18.80
2018-06-19T04:30:40.674Z,18.90
2018-06-19T04:33:07.639Z,19.00
2018-06-19T04:35:34.564Z,19.00
2018-06-19T04:38:01.537Z,18.90
2018-06-19T04:40:28.494Z,19.00
2018-06-19T04:42:55.454Z,19.00
2018-06-19T04:45:22.436Z,19.00
2018-06-19T04:47:49.377Z,19.00
2018-06-19T04:50:16.350Z,19.10
2018-06-19T04:52:43.469Z,19.10
2018-06-19T04:55:10.418Z,19.30
2018-06-19T04:57:37.374Z,19.30
2018-06-19T05:00:04.370Z,19.40
2018-06-19T05:02:31.292Z,19.50
2018-06-19T05:04:58.250Z,19.50
2018-06-19T05:07:25.275Z,19.50
2018-06-19T05:09:52.233Z,19.60
2018-06-19T05:12:19.177Z,19.60
2018-06-19T05:14:46.174Z,19.70
2018-06-19T05:17:13.144Z,19.90
2018-06-19T05:19:40.092Z,20.00
2018-06-19T05:22:07.185Z,20.00
2018-06-19T05:24:34.153Z,19.90
2018-06-19T05:27:01.119Z,20.00
2018-06-19T05:29:28.144Z,20.20
2018-06-19T05:31:55.097Z,19.90
2018-06-19T05:34:22.514Z,20.00
2018-06-19T05:36:49.529Z,20.20
2018-06-19T05:39:16.459Z,20.40
2018-06-19T05:41:43.405Z,20.50
2018-06-19T05:44:10.385Z,20.40
2018-06-19T05:46:37.740Z,20.40
2018-06-19T05:49:04.816Z,20.50
2018-06-19T05:51:31.779Z,20.50
2018-06-19T05:53:59.184Z,20.40
2018-06-19T05:56:26.156Z,20.70
2018-06-19T05:58:53.253Z,20.70
2018-06-19T06:01:20.331Z,20.70
2018-06-19T06:03:47.272Z,20.90
2018-06-19T06:06:14.252Z,20.90
2018-06-19T06:08:41.207Z,20.70
2018-06-19T06:11:08.204Z,20.70
2018-06-19T06:13:35.134Z,21.00
2018-06-19T06:16:02.089Z,21.50
2018-06-19T06:18:29.621Z,21.80
2018-06-19T06:20:56.563Z,21.40
2018-06-19T06:23:23.502Z,21.60
2018-06-19T06:25:50.466Z,21.80
2018-06-19T06:28:17.431Z,21.90
2018-06-19T06:30:44.424Z,21.80
2018-06-19T06:33:11.349Z,22.20
2018-06-19T06:35:38.314Z,22.50
2018-06-19T06:38:05.524Z,23.10
2018-06-19T06:40:32.501Z,23.80
2018-06-19T06:42:59.501Z,24.30
2018-06-19T06:45:26.538Z,24.60
2018-06-19T06:47:53.480Z,24.50
2018-06-19T06:50:20.514Z,24.70
2018-06-19T06:52:47.448Z,24.80
2018-06-19T06:55:14.393Z,24.70
2018-06-19T06:57:41.346Z,25.50
2018-06-19T07:00:08.285Z,26.20
2018-06-19T07:02:35.232Z,26.10
2018-06-19T07:05:02.214Z,25.60
2018-06-19T07:07:29.149Z,24.90
2018-06-19T07:09:56.083Z,25.70
2018-06-19T07:12:23.077Z,26.20
2018-06-19T07:14:50.033Z,25.60
2018-06-19T07:17:17.001Z,25.60
2018-06-19T07:19:43.962Z,25.90
2018-06-19T07:22:10.926Z,26.40
2018-06-19T07:24:37.869Z,26.80
2018-06-19T07:27:05.189Z,27.20
2018-06-19T07:29:32.136Z,27.00
2018-06-19T07:31:59.278Z,27.50
2018-06-19T07:34:26.519Z,27.50
2018-06-19T07:36:53.488Z,27.40
2018-06-19T07:39:20.437Z,27.90
2018-06-19T07:41:48.254Z,28.00
2018-06-19T07:44:16.028Z,27.50
2018-06-19T07:46:43.017Z,27.30
2018-06-19T07:49:10.002Z,27.50
2018-06-19T07:51:36.938Z,27.70
2018-06-19T07:54:03.916Z,27.90
2018-06-19T07:56:30.922Z,28.80
2018-06-19T07:58:57.877Z,28.30
2018-06-19T08:01:24.870Z,28.30
2018-06-19T08:04:55.748Z,28.70
2018-06-19T08:07:22.825Z,28.70
2018-06-19T08:09:49.768Z,28.70
2018-06-19T08:12:16.752Z,28.20
2018-06-19T08:14:43.728Z,29.00
2018-06-19T08:17:10.728Z,29.40
2018-06-19T08:19:37.718Z,29.80
2018-06-19T08:41:42.991Z,30.10
2018-06-19T08:44:10.066Z,30.00
2018-06-19T08:46:38.277Z,30.90
2018-06-19T08:49:05.248Z,30.80
2018-06-19T08:51:32.189Z,31.60
2018-06-19T08:53:59.569Z,31.70
2018-06-19T08:56:26.529Z,31.50
2018-06-19T09:03:47.539Z,31.60
2018-06-19T09:11:08.634Z,31.20
2018-06-19T09:13:35.585Z,30.00
2018-06-19T09:16:02.608Z,30.40
2018-06-19T09:18:29.548Z,31.20
2018-06-19T09:20:56.512Z,31.90
2018-06-19T10:44:22.492Z,28.10
2018-06-19T10:46:49.422Z,26.80
2018-06-19T10:49:16.348Z,26.80
2018-06-19T10:51:43.300Z,26.80
2018-06-19T10:54:10.248Z,27.20
2018-06-19T10:56:37.323Z,27.30
2018-06-19T10:59:04.245Z,27.60
2018-06-19T11:01:31.160Z,27.40
2018-06-19T11:03:58.091Z,27.10
2018-06-19T11:06:25.076Z,27.00
2018-06-19T11:08:52.031Z,27.10
2018-06-19T11:13:46.077Z,27.40
2018-06-19T11:16:13.126Z,28.00
2018-06-19T11:18:40.053Z,28.40
2018-06-19T11:21:06.996Z,28.30
2018-06-19T11:23:33.951Z,28.10
2018-06-19T11:28:27.959Z,27.90
2018-06-19T11:57:53.089Z,27.80
2018-06-19T12:00:20.091Z,26.50
2018-06-19T12:02:47.020Z,26.20
2018-06-19T12:05:13.984Z,26.30
2018-06-19T12:07:42.701Z,26.50
2018-06-19T12:10:09.967Z,26.90
2018-06-19T12:12:37.226Z,27.40
2018-06-19T12:15:04.350Z,27.70
2018-06-19T12:17:31.505Z,28.00
2018-06-19T12:19:58.483Z,28.70
2018-06-19T14:04:09.073Z,27.20
2018-06-19T14:06:36.057Z,26.40
2018-06-19T14:09:16.009Z,26.20
2018-06-19T14:11:59.310Z,26.20
2018-06-19T14:14:26.250Z,26.00
2018-06-19T14:16:53.764Z,25.90
2018-06-19T14:19:20.848Z,25.80
2018-06-19T14:21:47.724Z,25.70
2018-06-19T14:24:14.664Z,25.70
2018-06-19T14:26:41.622Z,25.80
2018-06-19T14:29:08.556Z,25.60
2018-06-19T14:31:35.505Z,25.50
2018-06-19T14:34:02.519Z,25.50
2018-06-19T14:36:29.488Z,25.30
2018-06-19T14:38:56.433Z,25.40
2018-06-19T14:41:23.663Z,25.40
2018-06-19T14:43:50.635Z,25.20
2018-06-19T14:46:17.678Z,24.90
2018-06-19T14:48:44.662Z,24.80
2018-06-19T14:51:11.628Z,24.70
2018-06-19T14:53:38.594Z,24.60
2018-06-19T14:56:05.638Z,24.50
2018-06-19T14:58:32.620Z,24.40
2018-06-19T15:00:59.623Z,24.20
2018-06-19T15:03:26.640Z,24.20
2018-06-19T15:05:53.594Z,24.10
2018-06-19T15:08:20.584Z,24.10
2018-06-19T15:10:47.736Z,24.20
2018-06-19T15:13:14.702Z,24.30
2018-06-19T15:15:41.739Z,24.40
2018-06-19T15:18:08.702Z,24.50
2018-06-19T15:20:35.688Z,24.60
2018-06-19T15:23:02.625Z,24.70
2018-06-19T15:25:29.618Z,24.80
2018-06-19T15:27:56.623Z,24.80
2018-06-19T15:30:23.567Z,24.80
2018-06-19T15:32:50.617Z,24.70
2018-06-19T15:35:17.553Z,24.60
2018-06-19T15:37:44.659Z,24.50
2018-06-19T15:40:11.793Z,24.40
2018-06-19T15:42:38.744Z,24.20
2018-06-19T15:45:05.683Z,24.20
2018-06-19T15:47:32.689Z,24.10
2018-06-19T15:49:59.646Z,24.10
2018-06-19T15:52:26.593Z,24.10
2018-06-19T15:54:53.556Z,24.10
2018-06-19T15:57:20.536Z,24.20
2018-06-19T15:59:47.540Z,24.20
2018-06-19T16:02:14.499Z,24.30
2018-06-19T16:04:41.572Z,24.40
2018-06-19T16:07:08.573Z,24.60
2018-06-19T16:09:35.566Z,24.70
2018-06-19T16:12:02.557Z,25.00
2018-06-19T16:14:29.487Z,25.00
2018-06-19T16:16:56.938Z,25.20
2018-06-19T16:19:23.896Z,25.10
2018-06-19T16:21:50.880Z,25.10
2018-06-19T16:24:17.827Z,24.90
2018-06-19T16:26:44.823Z,24.80
2018-06-19T16:29:11.802Z,25.00
2018-06-19T16:31:38.765Z,25.30
2018-06-19T16:34:05.872Z,25.60
2018-06-19T16:36:32.803Z,25.80
2018-06-19T16:39:00.597Z,25.80
2018-06-19T16:41:27.584Z,25.60
2018-06-19T16:43:54.567Z,25.50
2018-06-19T16:46:21.554Z,25.30
2018-06-19T16:48:48.519Z,25.30
2018-06-19T16:51:15.476Z,25.10
2018-06-19T16:53:42.432Z,24.90
2018-06-19T16:56:09.390Z,24.80
2018-06-19T16:58:36.392Z,24.60
2018-06-19T17:01:03.328Z,24.50
2018-06-19T17:03:30.279Z,24.60
2018-06-19T17:05:57.206Z,24.60
2018-06-19T17:08:24.354Z,24.70
2018-06-19T17:10:51.296Z,24.60
2018-06-19T17:13:18.251Z,24.50
2018-06-19T17:15:45.218Z,24.40
2018-06-19T17:18:12.200Z,24.40
2018-06-19T17:20:39.143Z,24.40
2018-06-19T17:23:06.263Z,24.40
2018-06-19T17:25:33.479Z,24.30
2018-06-19T17:28:00.416Z,24.30
2018-06-19T17:30:27.366Z,24.30
2018-06-19T17:32:54.349Z,24.30
2018-06-19T17:35:21.501Z,24.30
2018-06-19T17:37:48.410Z,24.40
2018-06-19T17:40:15.382Z,24.30
2018-06-19T17:42:42.485Z,24.30
2018-06-19T17:45:09.456Z,24.40
2018-06-19T17:47:36.388Z,24.30
2018-06-19T17:50:03.736Z,24.10
2018-06-19T17:52:30.839Z,23.90
2018-06-19T17:54:57.785Z,23.70
2018-06-19T17:57:24.800Z,23.70
2018-06-19T17:59:51.748Z,23.60
2018-06-19T18:02:18.865Z,23.50
2018-06-19T18:07:12.853Z,23.50
2018-06-19T18:09:40.701Z,23.50
2018-06-19T18:12:07.616Z,23.50
2018-06-19T18:14:34.798Z,23.50
2018-06-19T18:17:01.823Z,23.50
2018-06-19T18:19:29.139Z,23.40
2018-06-19T18:21:56.187Z,23.40
2018-06-19T18:24:23.267Z,23.40
2018-06-19T18:26:50.219Z,23.30
2018-06-19T18:29:17.160Z,23.30
2018-06-19T18:31:44.118Z,23.20
2018-06-19T18:34:11.248Z,23.20
2018-06-19T18:36:38.397Z,23.00
2018-06-19T18:39:06.854Z,23.00
2018-06-19T18:41:33.892Z,22.90
2018-06-19T18:44:07.931Z,22.90
2018-06-19T18:46:34.921Z,22.80
2018-06-19T18:49:01.866Z,22.70
2018-06-19T18:51:28.819Z,22.70
2018-06-19T18:53:55.772Z,22.70
2018-06-19T18:56:22.898Z,22.60
2018-06-19T18:58:49.864Z,22.60
2018-06-19T19:01:16.832Z,22.50
2018-06-19T19:03:43.769Z,22.40
2018-06-19T19:06:10.755Z,22.40
2018-06-19T19:08:37.764Z,22.30
2018-06-19T19:11:04.722Z,22.20
2018-06-19T19:13:32.391Z,22.20
2018-06-19T19:16:05.137Z,22.10
2018-06-19T19:21:05.047Z,21.90
2018-06-19T19:23:31.984Z,21.90
2018-06-19T19:25:59.043Z,21.80
2018-06-19T19:28:31.860Z,21.80
2018-06-19T19:30:59.057Z,21.80
2018-06-19T19:33:26.268Z,21.70
2018-06-19T19:35:53.232Z,21.70
2018-06-19T19:38:26.101Z,21.70
2018-06-19T19:40:53.140Z,21.60
2018-06-19T19:43:20.149Z,21.50
2018-06-19T19:45:47.243Z,21.40
2018-06-19T19:48:19.981Z,21.50
2018-06-19T19:50:46.980Z,21.40
2018-06-19T19:53:14.151Z,21.30
2018-06-19T19:55:47.384Z,21.30
2018-06-19T19:58:20.015Z,21.30
2018-06-19T20:00:48.322Z,21.20
2018-06-19T20:03:15.268Z,21.10
2018-06-19T20:05:42.285Z,21.00
2018-06-19T20:08:09.270Z,21.00
2018-06-19T20:10:36.224Z,21.00
2018-06-19T20:13:03.275Z,21.00
2018-06-19T20:15:30.252Z,20.90
2018-06-19T20:17:57.264Z,20.90
2018-06-19T20:20:24.228Z,20.90
2018-06-19T20:22:51.217Z,21.00
2018-06-19T20:25:18.168Z,21.00
2018-06-19T20:27:45.143Z,21.00
2018-06-19T20:30:12.088Z,21.00
2018-06-19T20:32:39.069Z,20.90
2018-06-19T20:35:06.045Z,20.90
2018-06-19T20:37:33.051Z,20.80
2018-06-19T20:40:00.021Z,20.80
2018-06-19T20:42:26.976Z,20.80
2018-06-19T20:44:53.937Z,20.80
2018-06-19T20:47:20.907Z,20.80
2018-06-19T20:49:47.878Z,20.70
2018-06-19T20:52:14.849Z,20.70
2018-06-19T20:54:41.893Z,20.70
2018-06-19T20:57:08.907Z,20.60
2018-06-19T20:59:35.897Z,20.60
2018-06-19T21:02:02.880Z,20.50
2018-06-19T21:04:29.830Z,20.50
2018-06-19T21:09:24.210Z,20.50
2018-06-19T21:11:51.177Z,20.40
2018-06-19T21:14:18.156Z,20.40
2018-06-19T21:16:45.105Z,20.40
2018-06-19T21:19:12.033Z,20.30
2018-06-19T21:21:39.009Z,20.40
2018-06-19T21:24:05.944Z,20.40
2018-06-19T21:26:32.913Z,20.50
2018-06-19T21:28:59.914Z,20.40
2018-06-19T21:31:26.885Z,20.50
2018-06-19T21:33:53.858Z,20.40
2018-06-19T21:36:20.801Z,20.40
2018-06-19T21:38:47.746Z,20.40
2018-06-19T21:41:14.729Z,20.40
2018-06-19T21:43:41.692Z,20.30
2018-06-19T21:46:08.621Z,20.40
2018-06-19T21:48:35.543Z,20.30
2018-06-19T21:51:02.848Z,20.30
2018-06-19T21:53:29.784Z,20.30
2018-06-19T21:55:57.753Z,20.30
2018-06-19T21:58:24.871Z,20.30
2018-06-19T22:00:51.928Z,20.30
2018-06-19T22:03:18.856Z,20.20
2018-06-19T22:05:46.594Z,20.20
2018-06-19T22:08:13.529Z,20.20
2018-06-19T22:10:40.464Z,20.10
2018-06-19T22:13:08.380Z,20.10
2018-06-19T22:15:35.543Z,20.10
2018-06-19T22:18:02.648Z,20.10
2018-06-19T22:20:29.968Z,20.20
2018-06-19T22:22:56.892Z,20.10
2018-06-19T22:25:23.829Z,20.10
2018-06-19T22:27:50.771Z,20.00
2018-06-19T22:30:17.842Z,20.00
2018-06-19T22:32:44.856Z,20.00
2018-06-19T22:35:11.821Z,20.00
2018-06-19T22:37:38.745Z,20.00
2018-06-19T22:40:05.801Z,20.00
2018-06-19T22:42:32.751Z,20.10
2018-06-19T22:44:59.678Z,20.00
2018-06-19T22:47:26.796Z,19.90
2018-06-19T22:49:53.912Z,20.00
2018-06-19T22:52:20.836Z,20.00
2018-06-19T22:54:47.813Z,20.00
2018-06-19T22:57:14.768Z,20.00
2018-06-19T22:59:41.695Z,19.90
2018-06-19T23:02:08.624Z,19.90
2018-06-19T23:04:35.813Z,19.80
2018-06-19T23:07:02.904Z,19.80
2018-06-19T23:09:29.821Z,19.90
2018-06-19T23:11:56.828Z,19.80
2018-06-19T23:14:24.092Z,19.80
2018-06-19T23:16:51.033Z,19.80
2018-06-19T23:19:17.981Z,19.80
2018-06-19T23:21:44.933Z,19.80
2018-06-19T23:24:11.988Z,19.80
2018-06-19T23:26:39.149Z,19.70
2018-06-19T23:29:06.388Z,19.60
2018-06-19T23:31:33.312Z,19.60
2018-06-19T23:34:00.297Z,19.50
2018-06-19T23:36:27.719Z,19.70
2018-06-19T23:38:54.644Z,19.80
2018-06-19T23:41:21.826Z,19.90
2018-06-19T23:43:48.933Z,19.80
2018-06-19T23:46:16.097Z,19.80
2018-06-19T23:48:43.041Z,19.80
2018-06-19T23:51:09.982Z,19.70
2018-06-19T23:53:37.119Z,19.70
2018-06-19T23:56:04.363Z,19.60
2018-06-19T23:58:32.002Z,19.50
